createdAt,value
2019-02-05T00:00:33.976Z,3.43
2019-02-05T00:03:03.238Z,4.40
2019-02-05T00:05:32.501Z,4.50
2019-02-05T00:08:01.814Z,4.30
2019-02-05T00:10:31.208Z,4.57
2019-02-05T00:13:00.455Z,4.23
2019-02-05T00:15:30.070Z,4.30
2019-02-05T00:17:59.298Z,4.30
2019-02-05T00:20:28.531Z,4.23
2019-02-05T00:22:57.870Z,4.20
2019-02-05T00:25:27.150Z,3.70
2019-02-05T00:27:56.473Z,3.90
2019-02-05T00:30:26.018Z,5.20
2019-02-05T00:32:55.268Z,3.53
2019-02-05T00:35:24.509Z,3.60
2019-02-05T00:37:54.764Z,3.70
2019-02-05T00:40:23.978Z,4.10
2019-02-05T00:42:53.274Z,3.83
2019-02-05T00:45:22.783Z,3.80
2019-02-05T00:47:52.053Z,3.63
2019-02-05T00:50:21.302Z,3.40
2019-02-05T00:52:50.536Z,4.50
2019-02-05T00:55:20.458Z,4.67
2019-02-05T00:57:49.710Z,5.17
2019-02-05T01:00:24.742Z,4.70
2019-02-05T01:02:54.052Z,5.20
2019-02-05T01:05:23.555Z,5.00
2019-02-05T01:07:52.863Z,5.67
2019-02-05T01:10:23.050Z,5.83
2019-02-05T01:12:53.365Z,5.23
2019-02-05T01:15:24.905Z,6.07
2019-02-05T01:17:54.453Z,4.80
2019-02-05T01:20:24.081Z,5.27
2019-02-05T01:22:53.318Z,5.05
2019-02-05T01:25:22.799Z,5.27
2019-02-05T01:27:52.204Z,4.97
2019-02-05T01:30:23.850Z,5.23
2019-02-05T01:32:53.097Z,5.17
2019-02-05T01:35:22.396Z,4.50
2019-02-05T01:37:51.775Z,4.23
2019-02-05T01:40:25.983Z,5.00
2019-02-05T01:42:55.504Z,4.97
2019-02-05T01:45:25.234Z,4.43
2019-02-05T01:47:54.737Z,4.63
2019-02-05T01:50:27.891Z,4.43
2019-02-05T01:52:57.208Z,5.07
2019-02-05T01:55:26.536Z,4.67
2019-02-05T01:57:55.802Z,5.00
2019-02-05T02:00:31.013Z,5.43
2019-02-05T02:03:01.239Z,5.53
2019-02-05T02:05:30.478Z,5.30
2019-02-05T02:08:00.995Z,6.07
2019-02-05T02:10:31.075Z,4.80
2019-02-05T02:13:00.334Z,5.27
2019-02-05T02:15:30.681Z,5.80
2019-02-05T02:17:59.960Z,5.40
2019-02-05T02:20:29.240Z,5.37
2019-02-05T02:22:58.758Z,6.17
2019-02-05T02:25:27.982Z,6.07
2019-02-05T02:27:57.243Z,5.50
2019-02-05T02:30:32.004Z,5.80
2019-02-05T02:33:01.320Z,6.70
2019-02-05T02:35:31.493Z,6.37
2019-02-05T02:38:01.719Z,5.87
2019-02-05T02:40:30.956Z,5.53
2019-02-05T02:43:00.225Z,6.10
2019-02-05T02:45:29.488Z,5.83
2019-02-05T02:47:58.722Z,6.30
2019-02-05T02:50:28.338Z,6.17
2019-02-05T02:52:57.591Z,6.13
2019-02-05T02:55:26.861Z,6.07
2019-02-05T02:57:56.093Z,5.77
2019-02-05T03:00:25.337Z,5.80
2019-02-05T03:02:54.669Z,6.30
2019-02-05T03:05:24.751Z,6.00
2019-02-05T03:07:54.003Z,6.03
2019-02-05T03:10:28.037Z,6.00
2019-02-05T03:12:57.550Z,6.10
2019-02-05T03:15:27.274Z,6.10
2019-02-05T03:17:56.540Z,6.17
2019-02-05T03:20:25.963Z,6.03
2019-02-05T03:22:55.575Z,6.07
2019-02-05T03:25:25.860Z,5.77
2019-02-05T03:27:55.382Z,6.30
2019-02-05T03:30:25.487Z,5.77
2019-02-05T03:32:56.429Z,6.13
2019-02-05T03:35:25.847Z,5.53
2019-02-05T03:37:55.251Z,5.40
2019-02-05T03:40:30.576Z,5.50
2019-02-05T03:43:00.058Z,5.23
2019-02-05T03:45:30.609Z,5.97
2019-02-05T03:48:02.713Z,5.60
2019-02-05T03:50:38.542Z,5.60
2019-02-05T03:53:13.605Z,5.93
2019-02-05T03:56:14.374Z,5.50
2019-02-05T03:59:01.811Z,6.57
2019-02-05T04:01:50.190Z,6.00
2019-02-05T04:04:31.260Z,6.30
2019-02-05T04:07:18.258Z,7.10
2019-02-05T04:09:53.487Z,6.43
2019-02-05T04:12:25.899Z,6.13
2019-02-05T04:14:58.584Z,6.37
2019-02-05T04:17:49.731Z,6.83
2019-02-05T04:20:54.834Z,6.53
2019-02-05T04:23:29.787Z,7.00
2019-02-05T04:26:18.274Z,6.10
2019-02-05T04:29:08.894Z,6.23
2019-02-05T04:31:47.250Z,6.40
2019-02-05T04:34:20.626Z,6.53
2019-02-05T04:36:53.061Z,5.70
2019-02-05T04:39:37.219Z,6.10
2019-02-05T04:42:26.635Z,6.20
2019-02-05T04:44:59.061Z,5.80
2019-02-05T04:47:41.370Z,6.13
2019-02-05T04:50:29.657Z,6.70
2019-02-05T04:53:16.556Z,6.60
2019-02-05T04:55:48.982Z,6.37
2019-02-05T04:58:40.696Z,7.10
2019-02-05T05:01:40.165Z,6.90
2019-02-05T05:04:17.628Z,6.80
2019-02-05T05:07:10.991Z,7.20
2019-02-05T05:09:55.333Z,6.67
2019-02-05T05:12:25.477Z,6.97
2019-02-05T05:14:55.733Z,7.03
2019-02-05T05:17:26.048Z,6.40
2019-02-05T05:19:55.481Z,7.33
2019-02-05T05:22:27.353Z,6.13
2019-02-05T05:24:57.552Z,7.33
2019-02-05T05:27:27.117Z,6.57
2019-02-05T05:29:56.675Z,6.73
2019-02-05T05:32:26.882Z,6.73
2019-02-05T05:34:56.131Z,7.60
2019-02-05T05:37:25.633Z,7.03
2019-02-05T05:39:54.968Z,6.60
2019-02-05T05:42:25.910Z,7.10
2019-02-05T05:44:55.147Z,6.60
2019-02-05T05:47:24.395Z,7.00
2019-02-05T05:49:53.638Z,7.20
2019-02-05T05:52:22.885Z,7.43
2019-02-05T05:54:52.151Z,6.90
2019-02-05T05:57:22.331Z,6.87
2019-02-05T05:59:53.516Z,7.70
2019-02-05T06:02:22.813Z,7.57
2019-02-05T06:04:52.068Z,7.10
2019-02-05T06:07:21.325Z,7.63
2019-02-05T06:09:50.828Z,8.17
2019-02-05T06:12:20.061Z,7.50
2019-02-05T06:14:49.626Z,7.83
2019-02-05T06:17:18.865Z,8.17
2019-02-05T06:19:48.252Z,7.60
2019-02-05T06:22:17.515Z,8.07
2019-02-05T06:24:46.880Z,8.43
2019-02-05T06:27:16.126Z,8.17
2019-02-05T06:29:45.748Z,8.60
2019-02-05T06:32:15.000Z,9.17
2019-02-05T06:34:44.246Z,9.20
2019-02-05T06:37:13.553Z,8.57
2019-02-05T06:39:42.805Z,10.93
2019-02-05T06:42:12.093Z,11.37
2019-02-05T06:44:42.331Z,9.80
2019-02-05T06:47:11.575Z,10.30
2019-02-05T06:49:40.872Z,9.83
2019-02-05T06:52:10.122Z,9.40
2019-02-05T06:54:40.452Z,10.50
2019-02-05T06:57:09.733Z,10.50
2019-02-05T06:59:39.992Z,11.70
2019-02-05T07:02:10.104Z,11.60
2019-02-05T07:04:39.346Z,13.07
2019-02-05T07:07:08.660Z,12.93
2019-02-05T07:09:37.973Z,12.80
2019-02-05T07:12:08.359Z,13.80
2019-02-05T07:14:37.701Z,12.67
2019-02-05T07:17:07.531Z,13.60
2019-02-05T07:19:38.866Z,12.70
2019-02-05T07:22:09.153Z,13.30
2019-02-05T07:24:39.383Z,12.40
2019-02-05T07:27:08.694Z,14.10
2019-02-05T07:29:37.976Z,14.50
2019-02-05T07:32:07.811Z,12.97
2019-02-05T07:34:37.118Z,14.13
2019-02-05T07:37:06.416Z,13.73
2019-02-05T07:39:35.729Z,13.67
2019-02-05T07:42:05.142Z,14.03
2019-02-05T07:44:34.448Z,13.90
2019-02-05T07:47:03.755Z,14.53
2019-02-05T07:49:33.045Z,14.30
2019-02-05T07:52:03.326Z,14.77
2019-02-05T07:54:32.637Z,14.03
2019-02-05T07:57:01.951Z,15.03
2019-02-05T07:59:31.228Z,14.07
2019-02-05T08:02:00.538Z,14.10
2019-02-05T08:04:29.842Z,15.40
2019-02-05T08:07:00.455Z,15.30
2019-02-05T08:09:29.758Z,15.00
2019-02-05T08:11:59.112Z,15.30
2019-02-05T08:14:28.418Z,14.13
2019-02-05T08:16:57.722Z,14.33
2019-02-05T08:19:27.012Z,14.43
2019-02-05T08:21:57.342Z,14.43
2019-02-05T08:24:27.725Z,14.70
2019-02-05T08:26:57.961Z,14.33
2019-02-05T08:29:27.261Z,14.83
2019-02-05T08:31:57.541Z,14.80
2019-02-05T08:34:26.893Z,15.93
2019-02-05T08:36:56.225Z,15.17
2019-02-05T08:39:25.517Z,15.07
2019-02-05T08:41:55.134Z,16.20
2019-02-05T08:44:24.502Z,15.53
2019-02-05T08:46:53.884Z,15.17
2019-02-05T08:49:23.192Z,15.07
2019-02-05T08:51:52.584Z,14.00
2019-02-05T08:54:21.889Z,15.30
2019-02-05T08:56:51.191Z,14.40
2019-02-05T08:59:20.794Z,15.20
2019-02-05T09:01:50.132Z,14.70
2019-02-05T09:04:20.413Z,13.90
2019-02-05T09:06:49.727Z,13.53
2019-02-05T09:09:19.044Z,13.57
2019-02-05T09:11:48.389Z,14.00
2019-02-05T09:14:17.682Z,13.57
2019-02-05T09:16:46.982Z,13.40
2019-02-05T09:19:18.282Z,13.77
2019-02-05T09:21:47.658Z,13.50
2019-02-05T09:24:16.978Z,14.20
2019-02-05T09:26:47.248Z,13.13
2019-02-05T09:29:16.535Z,13.60
2019-02-05T09:31:46.012Z,13.50
2019-02-05T09:34:15.313Z,13.43
2019-02-05T09:36:44.637Z,14.10
2019-02-05T09:39:13.986Z,13.77
2019-02-05T09:41:43.342Z,12.40
2019-02-05T09:44:12.643Z,12.73
2019-02-05T09:46:41.939Z,13.57
2019-02-05T09:49:12.220Z,13.60
2019-02-05T09:51:41.522Z,12.77
2019-02-05T09:54:10.894Z,13.27
2019-02-05T09:56:40.211Z,12.77
2019-02-05T09:59:09.509Z,14.00
2019-02-05T10:01:38.824Z,13.37
2019-02-05T10:04:10.426Z,13.63
2019-02-05T10:06:39.729Z,13.40
2019-02-05T10:09:09.048Z,12.97
2019-02-05T10:11:38.477Z,13.40
2019-02-05T10:14:07.939Z,13.80
2019-02-05T10:16:37.222Z,13.53
2019-02-05T10:19:07.529Z,13.90
2019-02-05T10:21:36.839Z,13.40
2019-02-05T10:24:06.249Z,14.77
2019-02-05T10:26:35.534Z,14.37
2019-02-05T10:29:05.019Z,15.07
2019-02-05T10:31:34.324Z,15.13
2019-02-05T10:34:03.742Z,17.10
2019-02-05T10:36:33.219Z,17.80
2019-02-05T10:39:02.544Z,15.13
2019-02-05T10:41:31.838Z,15.37
2019-02-05T10:44:01.153Z,14.37
2019-02-05T10:46:30.551Z,13.90
2019-02-05T10:48:59.861Z,14.17
2019-02-05T10:51:30.977Z,14.80
2019-02-05T10:54:01.223Z,14.53
2019-02-05T10:56:30.551Z,14.53
2019-02-05T10:59:00.857Z,13.40
2019-02-05T11:01:31.225Z,14.03
2019-02-05T11:04:00.525Z,14.47
2019-02-05T11:06:29.844Z,14.67
2019-02-05T11:08:59.202Z,14.77
2019-02-05T11:11:28.604Z,13.93
2019-02-05T11:13:57.898Z,15.03
2019-02-05T11:16:27.205Z,15.03
2019-02-05T11:18:56.581Z,15.00
2019-02-05T11:21:25.895Z,14.97
2019-02-05T11:23:55.526Z,14.43
2019-02-05T11:26:24.850Z,13.77
2019-02-05T11:28:54.166Z,14.50
2019-02-05T11:31:23.465Z,13.73
2019-02-05T11:33:52.755Z,13.60
2019-02-05T11:36:22.033Z,14.97
2019-02-05T11:38:51.388Z,15.67
2019-02-05T11:41:20.963Z,15.53
2019-02-05T11:43:50.320Z,14.57
2019-02-05T11:46:20.649Z,15.00
2019-02-05T11:48:49.979Z,15.33
2019-02-05T11:51:19.276Z,14.10
2019-02-05T11:53:48.618Z,14.73
2019-02-05T11:56:17.897Z,14.53
2019-02-05T11:58:47.237Z,14.90
2019-02-05T12:01:16.624Z,15.37
2019-02-05T12:03:45.935Z,14.30
2019-02-05T12:06:15.224Z,15.00
2019-02-05T12:08:44.702Z,14.77
2019-02-05T12:11:14.010Z,14.90
2019-02-05T12:13:43.635Z,14.70
2019-02-05T12:16:13.032Z,15.10
2019-02-05T12:18:42.424Z,15.10
2019-02-05T12:21:11.785Z,15.07
2019-02-05T12:23:41.092Z,15.80
2019-02-05T12:26:10.454Z,14.60
2019-02-05T12:28:39.831Z,14.80
2019-02-05T12:31:09.469Z,14.80
2019-02-05T12:33:38.796Z,14.10
2019-02-05T12:36:08.236Z,15.00
2019-02-05T12:38:37.552Z,15.13
2019-02-05T12:41:06.838Z,14.63
2019-02-05T12:43:36.138Z,15.40
2019-02-05T12:46:05.504Z,14.93
2019-02-05T12:48:34.804Z,15.30
2019-02-05T12:51:04.620Z,16.20
2019-02-05T12:53:35.892Z,16.03
2019-02-05T12:56:05.349Z,15.87
2019-02-05T12:58:34.637Z,15.70
2019-02-05T13:01:03.970Z,15.70
2019-02-05T13:03:33.291Z,16.63
2019-02-05T13:06:02.582Z,15.43
2019-02-05T13:08:32.880Z,15.10
2019-02-05T13:11:02.162Z,16.37
2019-02-05T13:13:31.469Z,16.23
2019-02-05T13:16:00.910Z,15.80
2019-02-05T13:18:30.359Z,16.10
2019-02-05T13:20:59.691Z,16.20
2019-02-05T13:23:28.987Z,16.30
2019-02-05T13:25:58.457Z,16.20
2019-02-05T13:28:28.129Z,16.73
2019-02-05T13:31:07.564Z,15.50
2019-02-05T13:33:30.109Z,16.17
2019-02-05T13:35:59.400Z,15.57
2019-02-05T13:38:28.776Z,15.70
2019-02-05T13:40:58.106Z,16.03
2019-02-05T13:43:27.384Z,16.47
2019-02-05T13:45:56.774Z,15.97
2019-02-05T13:48:26.076Z,16.60
2019-02-05T13:50:55.398Z,15.07
2019-02-05T13:53:24.761Z,15.67
2019-02-05T13:55:55.068Z,16.90
2019-02-05T13:58:25.329Z,16.23
2019-02-05T14:00:54.750Z,16.03
2019-02-05T14:03:24.167Z,15.57
2019-02-05T14:05:56.101Z,15.07
2019-02-05T14:08:25.381Z,16.27
2019-02-05T14:10:54.752Z,15.37
2019-02-05T14:13:24.052Z,15.97
2019-02-05T14:15:53.431Z,15.90
2019-02-05T14:18:23.775Z,15.83
2019-02-05T14:20:53.132Z,16.40
2019-02-05T14:23:22.465Z,15.20
2019-02-05T14:25:51.793Z,16.60
2019-02-05T14:28:22.980Z,15.67
2019-02-05T14:30:53.516Z,15.50
2019-02-05T14:33:23.038Z,16.23
2019-02-05T14:35:52.355Z,16.20
2019-02-05T14:38:21.785Z,16.87
2019-02-05T14:40:53.056Z,15.20
2019-02-05T14:43:22.742Z,14.57
2019-02-05T14:45:52.047Z,14.93
2019-02-05T14:48:21.417Z,14.97
2019-02-05T14:50:51.767Z,15.37
2019-02-05T14:53:26.930Z,14.40
2019-02-05T14:55:57.119Z,15.67
2019-02-05T14:58:26.417Z,13.97
2019-02-05T15:00:56.683Z,14.40
2019-02-05T15:03:26.002Z,14.27
2019-02-05T15:05:55.288Z,13.87
2019-02-05T15:08:24.680Z,15.33
2019-02-05T15:10:53.997Z,13.93
2019-02-05T15:13:23.313Z,14.93
2019-02-05T15:15:52.610Z,13.70
2019-02-05T15:18:21.988Z,13.83
2019-02-05T15:20:51.427Z,13.90
2019-02-05T15:23:21.804Z,14.73
2019-02-05T15:25:52.596Z,13.27
2019-02-05T15:28:22.884Z,14.60
2019-02-05T15:30:52.176Z,13.93
2019-02-05T15:33:23.317Z,13.90
2019-02-05T15:36:00.043Z,14.50
2019-02-05T15:38:29.819Z,15.03
2019-02-05T15:40:59.142Z,14.40
2019-02-05T15:43:28.430Z,13.93
2019-02-05T15:45:57.729Z,13.67
2019-02-05T15:48:27.028Z,14.13
2019-02-05T15:50:56.310Z,14.33
2019-02-05T15:53:25.880Z,13.77
2019-02-05T15:55:56.295Z,13.80
2019-02-05T15:58:25.625Z,13.80
2019-02-05T16:00:54.929Z,13.37
2019-02-05T16:03:24.220Z,13.27
2019-02-05T16:05:53.512Z,13.73
2019-02-05T16:08:23.106Z,13.53
2019-02-05T16:10:53.422Z,13.03
2019-02-05T16:13:23.672Z,13.97
2019-02-05T16:15:52.999Z,12.63
2019-02-05T16:18:22.288Z,14.23
2019-02-05T16:20:51.605Z,13.17
2019-02-05T16:23:21.159Z,12.80
2019-02-05T16:25:50.521Z,12.67
2019-02-05T16:28:19.906Z,13.07
2019-02-05T16:30:49.230Z,12.77
2019-02-05T16:33:18.560Z,11.53
2019-02-05T16:35:47.857Z,12.60
2019-02-05T16:38:17.435Z,12.57
2019-02-05T16:40:46.747Z,12.33
2019-02-05T16:43:16.054Z,12.57
2019-02-05T16:45:45.547Z,12.67
2019-02-05T16:48:15.958Z,13.33
2019-02-05T16:50:47.581Z,13.70
2019-02-05T16:53:19.023Z,13.47
2019-02-05T16:55:49.272Z,13.60
2019-02-05T16:58:18.584Z,13.90
2019-02-05T17:00:47.894Z,14.33
2019-02-05T17:03:17.215Z,14.10
2019-02-05T17:05:47.408Z,14.67
2019-02-05T17:08:16.746Z,15.10
2019-02-05T17:10:46.056Z,16.27
2019-02-05T17:13:16.369Z,16.07
2019-02-05T17:15:45.654Z,15.13
2019-02-05T17:18:23.253Z,15.17
2019-02-05T17:20:45.937Z,15.97
2019-02-05T17:23:15.257Z,15.70
2019-02-05T17:25:44.545Z,16.00
2019-02-05T17:28:13.852Z,15.77
2019-02-05T17:30:44.176Z,15.73
2019-02-05T17:33:13.480Z,17.93
2019-02-05T17:35:43.056Z,16.50
2019-02-05T17:38:14.301Z,15.77
2019-02-05T17:40:43.586Z,16.97
2019-02-05T17:43:12.883Z,15.90
2019-02-05T17:45:42.810Z,16.97
2019-02-05T17:48:15.121Z,16.90
2019-02-05T17:50:44.813Z,16.57
2019-02-05T17:53:14.122Z,16.60
2019-02-05T17:55:43.565Z,17.97
2019-02-05T17:58:12.871Z,16.97
2019-02-05T18:00:49.567Z,16.23
2019-02-05T18:03:19.359Z,16.97
2019-02-05T18:05:48.669Z,17.43
2019-02-05T18:08:18.172Z,17.80
2019-02-05T18:10:47.459Z,16.77
2019-02-05T18:13:16.730Z,17.17
2019-02-05T18:15:52.818Z,17.53
2019-02-05T18:18:22.117Z,16.57
2019-02-05T18:20:51.440Z,17.77
2019-02-05T18:23:20.844Z,16.73
2019-02-05T18:25:50.152Z,17.10
2019-02-05T18:28:20.537Z,16.10
2019-02-05T18:30:49.859Z,16.33
2019-02-05T18:33:19.170Z,16.03
2019-02-05T18:35:50.400Z,16.33
2019-02-05T18:38:19.714Z,15.90
2019-02-05T18:40:49.024Z,14.63
2019-02-05T18:43:18.331Z,15.73
2019-02-05T18:45:47.609Z,14.93
2019-02-05T18:48:16.936Z,14.80
2019-02-05T18:50:47.224Z,14.13
2019-02-05T18:53:16.546Z,13.67
2019-02-05T18:55:47.088Z,14.30
2019-02-05T18:58:16.408Z,13.73
2019-02-05T19:00:46.536Z,13.33
2019-02-05T19:03:16.519Z,13.23
2019-02-05T19:05:45.961Z,13.17
2019-02-05T19:08:16.531Z,13.53
2019-02-05T19:10:46.217Z,13.80
2019-02-05T19:13:15.544Z,14.20
2019-02-05T19:15:45.296Z,13.47
2019-02-05T19:18:14.620Z,14.30
2019-02-05T19:20:43.909Z,13.43
2019-02-05T19:23:13.342Z,12.93
2019-02-05T19:25:56.969Z,13.57
2019-02-05T19:28:28.145Z,13.50
2019-02-05T19:30:59.991Z,12.87
2019-02-05T19:33:29.371Z,12.60
2019-02-05T19:35:59.617Z,13.20
2019-02-05T19:38:28.986Z,13.47
2019-02-05T19:40:59.233Z,13.57
2019-02-05T19:43:28.559Z,13.57
2019-02-05T19:45:59.468Z,13.00
2019-02-05T19:48:33.368Z,12.67
2019-02-05T19:51:04.080Z,12.87
2019-02-05T19:53:33.364Z,13.07
2019-02-05T19:56:02.928Z,12.80
2019-02-05T19:58:32.492Z,12.13
2019-02-05T20:01:01.896Z,12.63
2019-02-05T20:03:38.348Z,12.93
2019-02-05T20:06:02.281Z,13.97
2019-02-05T20:08:33.540Z,12.33
2019-02-05T20:11:02.831Z,12.50
2019-02-05T20:13:39.853Z,12.20
2019-02-05T20:16:04.169Z,13.80
2019-02-05T20:18:33.479Z,12.17
2019-02-05T20:21:03.708Z,13.13
2019-02-05T20:23:33.066Z,12.17
2019-02-05T20:26:03.484Z,12.00
2019-02-05T20:28:32.781Z,12.17
2019-02-05T20:31:02.194Z,13.20
2019-02-05T20:33:32.465Z,12.57
2019-02-05T20:36:02.712Z,14.20
2019-02-05T20:38:32.107Z,12.90
2019-02-05T20:41:01.460Z,13.33
2019-02-05T20:43:30.742Z,12.70
2019-02-05T20:46:00.242Z,12.80
2019-02-05T20:48:29.945Z,12.50
2019-02-05T20:51:01.214Z,11.77
2019-02-05T20:53:31.567Z,12.33
2019-02-05T20:56:00.883Z,12.03
2019-02-05T20:58:30.180Z,13.20
2019-02-05T21:00:59.914Z,12.87
2019-02-05T21:03:29.270Z,12.97
2019-02-05T21:05:58.577Z,12.33
2019-02-05T21:08:27.879Z,12.87
2019-02-05T21:10:57.236Z,13.33
2019-02-05T21:13:26.524Z,12.10
2019-02-05T21:15:57.765Z,12.53
2019-02-05T21:18:28.079Z,12.30
2019-02-05T21:20:57.490Z,11.73
2019-02-05T21:23:27.737Z,12.13
2019-02-05T21:25:57.051Z,12.37
2019-02-05T21:28:26.364Z,12.07
2019-02-05T21:30:55.721Z,12.97
2019-02-05T21:33:25.294Z,12.07
2019-02-05T21:35:55.521Z,11.97
2019-02-05T21:38:24.886Z,12.60
2019-02-05T21:40:55.145Z,12.90
2019-02-05T21:43:24.461Z,12.90
2019-02-05T21:45:53.758Z,12.60
2019-02-05T21:48:23.248Z,11.97
2019-02-05T21:50:52.530Z,11.93
2019-02-05T21:53:21.982Z,12.53
2019-02-05T21:55:51.267Z,11.20
2019-02-05T21:58:20.592Z,12.43
2019-02-05T22:00:50.950Z,12.20
2019-02-05T22:03:20.324Z,11.23
2019-02-05T22:05:50.623Z,12.47
2019-02-05T22:08:25.792Z,13.23
2019-02-05T22:10:56.110Z,11.67
2019-02-05T22:13:25.408Z,12.47
2019-02-05T22:15:54.775Z,12.20
2019-02-05T22:18:24.180Z,11.80
2019-02-05T22:20:54.918Z,11.80
2019-02-05T22:23:24.435Z,13.03
2019-02-05T22:25:53.827Z,11.83
2019-02-05T22:28:24.142Z,11.80
2019-02-05T22:30:55.593Z,11.83
2019-02-05T22:33:27.935Z,12.97
2019-02-05T22:36:00.974Z,12.53
2019-02-05T22:38:30.330Z,11.67
2019-02-05T22:41:00.685Z,12.53
2019-02-05T22:43:30.006Z,12.13
2019-02-05T22:45:59.578Z,12.50
2019-02-05T22:48:29.425Z,12.27
2019-02-05T22:50:58.757Z,12.30
2019-02-05T22:53:28.365Z,12.33
2019-02-05T22:55:57.730Z,11.53
2019-02-05T22:58:27.165Z,12.67
2019-02-05T23:01:00.707Z,12.63
2019-02-05T23:03:46.046Z,14.03
2019-02-05T23:06:27.552Z,12.50
2019-02-05T23:09:01.610Z,12.90
2019-02-05T23:12:06.938Z,13.10
2019-02-05T23:14:36.435Z,13.03
2019-02-05T23:17:06.259Z,12.27
2019-02-05T23:19:35.705Z,12.17
2019-02-05T23:22:05.159Z,13.60
2019-02-05T23:24:35.687Z,12.43
2019-02-05T23:27:05.012Z,11.87
2019-02-05T23:29:34.252Z,11.10
2019-02-05T23:32:03.750Z,12.03
2019-02-05T23:34:34.080Z,11.57
2019-02-05T23:37:04.414Z,11.70
2019-02-05T23:39:33.646Z,11.57
2019-02-05T23:42:02.993Z,11.87
2019-02-05T23:44:33.214Z,11.57
2019-02-05T23:47:02.468Z,11.70
2019-02-05T23:49:31.840Z,11.00
2019-02-05T23:52:01.096Z,11.30
2019-02-05T23:54:30.346Z,11.67
2019-02-05T23:56:59.658Z,11.00
2019-02-05T23:59:28.886Z,10.90
